createdAt,value
2023-05-17T00:02:17.324Z,75.18
2023-05-17T00:07:20.293Z,75.84
2023-05-17T00:12:17.273Z,76.67
2023-05-17T00:17:17.338Z,76.04
2023-05-17T00:22:17.064Z,77.11
2023-05-17T00:27:17.035Z,77.77
2023-05-17T00:32:16.982Z,78.70
2023-05-17T00:37:16.900Z,78.49
2023-05-17T00:42:16.787Z,78.74
2023-05-17T00:47:16.784Z,79.39
2023-05-17T00:52:16.654Z,79.80
2023-05-17T00:57:16.626Z,79.39
2023-05-17T01:02:16.508Z,79.60
2023-05-17T01:07:20.367Z,80.81
2023-05-17T01:12:16.452Z,81.88
2023-05-17T01:17:16.664Z,81.12
2023-05-17T01:22:16.312Z,81.12
2023-05-17T01:27:16.294Z,80.26
2023-05-17T01:32:16.153Z,79.74
2023-05-17T01:37:16.169Z,80.08
2023-05-17T01:42:16.086Z,81.68
2023-05-17T01:47:15.999Z,81.47
2023-05-17T01:52:15.899Z,82.86
2023-05-17T01:57:15.871Z,82.75
2023-05-17T02:02:15.774Z,82.09
2023-05-17T02:07:18.712Z,82.65
2023-05-17T02:12:15.638Z,83.37
2023-05-17T02:17:15.620Z,81.43
2023-05-17T02:22:15.494Z,81.37
2023-05-17T02:27:15.524Z,82.44
2023-05-17T02:32:15.415Z,82.86
2023-05-17T02:37:15.360Z,83.51
2023-05-17T02:42:15.292Z,82.40
2023-05-17T02:47:15.274Z,82.71
2023-05-17T02:52:15.095Z,81.88
2023-05-17T02:57:15.089Z,82.34
2023-05-17T03:02:15.030Z,83.55
2023-05-17T03:07:17.970Z,84.23
2023-05-17T03:12:14.844Z,84.75
2023-05-17T03:17:14.811Z,83.00
2023-05-17T03:22:14.724Z,83.78
2023-05-17T03:27:14.755Z,83.16
2023-05-17T03:32:14.591Z,82.95
2023-05-17T03:37:14.768Z,82.40
2023-05-17T03:42:14.471Z,81.43
2023-05-17T03:47:14.481Z,80.53
2023-05-17T03:52:14.387Z,80.05
2023-05-17T03:57:14.317Z,80.67
2023-05-17T04:02:14.218Z,80.94
2023-05-17T04:07:17.205Z,78.87
2023-05-17T04:12:14.127Z,80.15
2023-05-17T04:17:16.251Z,76.46
2023-05-17T04:22:13.950Z,74.84
2023-05-17T04:27:13.920Z,74.46
2023-05-17T04:32:13.876Z,73.78
2023-05-17T04:37:13.836Z,73.13
2023-05-17T04:42:13.707Z,72.58
2023-05-17T04:47:13.849Z,73.09
2023-05-17T04:52:13.546Z,66.51
2023-05-17T04:57:13.521Z,61.63
2023-05-17T05:02:13.431Z,59.92
2023-05-17T05:07:16.381Z,59.36
2023-05-17T05:12:13.300Z,58.87
2023-05-17T05:17:13.256Z,55.18
2023-05-17T05:22:13.160Z,53.91
2023-05-17T05:27:13.146Z,53.27
2023-05-17T05:32:13.029Z,53.91
2023-05-17T05:37:13.000Z,57.29
2023-05-17T05:42:12.917Z,58.53
2023-05-17T05:47:12.855Z,57.79
2023-05-17T05:52:12.772Z,58.51
2023-05-17T05:57:12.773Z,54.64
2023-05-17T06:02:12.631Z,54.66
2023-05-17T06:07:15.670Z,59.50
2023-05-17T06:12:12.557Z,60.54
2023-05-17T06:17:12.451Z,60.08
2023-05-17T06:22:12.407Z,59.80
2023-05-17T06:27:12.381Z,60.18
2023-05-17T06:32:13.161Z,64.63
2023-05-17T06:37:12.319Z,66.74
2023-05-17T06:42:12.139Z,67.24
2023-05-17T06:47:12.089Z,67.21
2023-05-17T06:52:12.030Z,66.50
2023-05-17T06:57:11.999Z,67.04
2023-05-17T07:02:11.870Z,67.11
2023-05-17T07:07:14.934Z,67.01
2023-05-17T07:13:29.402Z,66.30
2023-05-17T07:18:29.346Z,67.29
2023-05-17T07:23:29.318Z,67.01
2023-05-17T07:28:29.138Z,64.67
2023-05-17T07:33:29.096Z,63.54
2023-05-17T07:38:29.025Z,63.33
2023-05-17T07:43:28.987Z,62.41
2023-05-17T07:48:28.987Z,63.70
2023-05-17T07:53:28.898Z,64.61
2023-05-17T07:58:28.778Z,64.81
2023-05-17T08:03:31.768Z,66.41
2023-05-17T08:08:28.655Z,66.07
2023-05-17T08:13:28.661Z,65.69
2023-05-17T08:18:29.526Z,67.25
2023-05-17T08:23:28.468Z,65.12
2023-05-17T08:28:28.351Z,64.38
2023-05-17T08:33:28.518Z,65.12
2023-05-17T08:38:28.281Z,63.14
2023-05-17T08:43:28.216Z,60.63
2023-05-17T08:48:28.199Z,61.65
2023-05-17T08:53:28.151Z,62.52
2023-05-17T08:58:28.022Z,62.14
2023-05-17T09:03:31.067Z,63.83
2023-05-17T09:08:27.897Z,63.83
2023-05-17T09:13:27.793Z,61.04
2023-05-17T09:18:27.745Z,57.54
2023-05-17T09:23:27.746Z,56.60
2023-05-17T09:28:27.539Z,56.99
2023-05-17T09:33:27.582Z,52.15
2023-05-17T09:38:27.445Z,54.26
2023-05-17T09:43:27.399Z,52.48
2023-05-17T09:48:27.386Z,52.79
2023-05-17T09:53:27.271Z,54.18
2023-05-17T09:58:27.185Z,53.67
2023-05-17T10:03:30.207Z,54.84
2023-05-17T10:08:27.059Z,54.13
2023-05-17T10:13:27.002Z,53.88
2023-05-17T10:18:26.956Z,53.02
2023-05-17T10:23:26.901Z,52.33
2023-05-17T10:28:26.760Z,50.79
2023-05-17T10:33:26.892Z,51.42
2023-05-17T10:38:38.606Z,53.65
2023-05-17T10:43:27.663Z,50.18
2023-05-17T10:48:26.641Z,50.51
2023-05-17T10:53:26.492Z,46.81
2023-05-17T10:58:26.362Z,44.82
2023-05-17T11:03:29.395Z,44.72
2023-05-17T11:08:26.235Z,46.89
2023-05-17T11:13:26.198Z,46.28
2023-05-17T11:18:31.329Z,47.19
2023-05-17T11:23:27.123Z,44.92
2023-05-17T11:28:26.058Z,46.18
2023-05-17T11:33:33.686Z,46.06
2023-05-17T11:38:27.096Z,44.68
2023-05-17T11:43:25.848Z,43.73
2023-05-17T11:48:26.037Z,44.52
2023-05-17T11:53:25.678Z,43.91
2023-05-17T11:58:25.598Z,45.35
2023-05-17T12:03:28.545Z,43.55
2023-05-17T12:08:25.459Z,43.00
2023-05-17T12:13:25.403Z,42.09
2023-05-17T12:18:25.398Z,42.03
2023-05-17T12:23:25.305Z,42.23
2023-05-17T12:28:25.172Z,44.21
2023-05-17T12:33:25.207Z,41.38
2023-05-17T12:38:25.005Z,43.57
2023-05-17T12:43:25.066Z,43.02
2023-05-17T12:48:24.931Z,45.12
2023-05-17T12:53:24.922Z,46.48
2023-05-17T12:58:24.758Z,42.76
2023-05-17T13:03:27.803Z,41.67
2023-05-17T13:08:24.639Z,43.06
2023-05-17T13:13:24.605Z,41.95
2023-05-17T13:18:24.544Z,41.04
2023-05-17T13:23:24.446Z,41.63
2023-05-17T13:28:24.348Z,41.08
2023-05-17T13:33:24.764Z,42.17
2023-05-17T13:38:24.247Z,42.43
2023-05-17T13:43:24.195Z,42.35
2023-05-17T13:48:24.205Z,42.05
2023-05-17T13:53:24.120Z,42.46
2023-05-17T13:58:23.994Z,40.32
2023-05-17T14:03:27.043Z,41.20
2023-05-17T14:08:23.854Z,41.63
2023-05-17T14:13:23.784Z,39.33
2023-05-17T14:18:23.806Z,39.21
2023-05-17T14:23:23.688Z,37.68
2023-05-17T14:28:23.536Z,35.18
2023-05-17T14:33:23.636Z,36.69
2023-05-17T14:38:23.417Z,39.59
2023-05-17T14:43:23.379Z,38.89
2023-05-17T14:48:23.464Z,36.80
2023-05-17T14:53:23.263Z,34.89
2023-05-17T14:58:23.149Z,35.60
2023-05-17T15:03:26.250Z,35.61
2023-05-17T15:08:23.159Z,35.53
2023-05-17T15:13:22.975Z,35.26
2023-05-17T15:18:22.929Z,33.59
2023-05-17T15:23:22.881Z,33.51
2023-05-17T15:28:22.756Z,36.10
2023-05-17T15:33:22.843Z,36.42
2023-05-17T15:38:22.678Z,37.56
2023-05-17T15:43:22.570Z,36.51
2023-05-17T15:48:22.557Z,37.87
2023-05-17T15:53:22.468Z,39.59
2023-05-17T15:58:22.367Z,39.57
2023-05-17T16:03:25.330Z,40.64
2023-05-17T16:08:22.230Z,41.55
2023-05-17T16:13:22.303Z,41.71
2023-05-17T16:18:22.142Z,42.09
2023-05-17T16:23:22.104Z,42.21
2023-05-17T16:28:21.951Z,43.04
2023-05-17T16:33:21.989Z,43.44
2023-05-17T16:38:21.818Z,43.23
2023-05-17T16:43:21.782Z,41.71
2023-05-17T16:48:21.782Z,42.76
2023-05-17T16:53:21.729Z,41.72
2023-05-17T16:58:21.578Z,41.72
2023-05-17T17:03:24.638Z,42.31
2023-05-17T17:08:21.452Z,43.29
2023-05-17T17:13:21.610Z,43.26
2023-05-17T17:18:21.310Z,43.35
2023-05-17T17:23:21.319Z,43.16
2023-05-17T17:28:21.160Z,43.38
2023-05-17T17:33:21.191Z,43.49
2023-05-17T17:38:21.027Z,43.10
2023-05-17T17:43:20.987Z,43.59
2023-05-17T17:48:20.866Z,43.38
2023-05-17T17:53:20.855Z,43.71
2023-05-17T17:58:20.708Z,42.69
2023-05-17T18:03:23.723Z,43.20
2023-05-17T18:08:20.601Z,44.56
2023-05-17T18:13:20.587Z,44.16
2023-05-17T18:18:20.460Z,44.77
2023-05-17T18:23:20.502Z,46.70
2023-05-17T18:28:30.104Z,47.22
2023-05-17T18:33:21.377Z,48.39
2023-05-17T18:38:20.195Z,50.85
2023-05-17T18:43:20.175Z,53.78
2023-05-17T18:48:20.053Z,56.40
2023-05-17T18:53:20.118Z,57.48
2023-05-17T18:58:19.953Z,59.06
2023-05-17T19:03:22.953Z,60.55
2023-05-17T19:08:19.853Z,61.70
2023-05-17T19:13:19.810Z,61.70
2023-05-17T19:18:19.694Z,62.24
2023-05-17T19:23:19.681Z,62.48
2023-05-17T19:28:19.532Z,63.53
2023-05-17T19:33:19.601Z,63.94
2023-05-17T19:38:19.405Z,63.87
2023-05-17T19:43:19.370Z,64.28
2023-05-17T19:48:19.257Z,64.41
2023-05-17T19:53:19.229Z,63.87
2023-05-17T19:58:19.113Z,62.61
2023-05-17T20:03:22.150Z,61.76
2023-05-17T20:08:19.036Z,61.66
2023-05-17T20:13:19.020Z,60.91
2023-05-17T20:18:18.881Z,62.30
2023-05-17T20:23:18.844Z,64.10
2023-05-17T20:28:18.730Z,65.12
2023-05-17T20:33:18.701Z,65.47
2023-05-17T20:38:18.579Z,66.11
2023-05-17T20:43:18.623Z,66.42
2023-05-17T20:48:18.511Z,66.19
2023-05-17T20:53:18.488Z,65.88
2023-05-17T20:58:18.450Z,65.23
